Henry, South Dakota
Current Conditions -  °F | °C
As of 11:53 PM on Wednesday 26 Nov 2014 (Local Time) from KATY Reporting Station
Clear Clear  
Wind Chill: -16°   Ceiling: Unl
Heat Index: -5°   Visibility: 10mi
Dew Point: -11°   Wind: 5mph
Humidity: 76%   Direction: 330°NNW
Pressure: 30.45"   Gusts: NA
Location:  44.88°N, 97.47°W
Report Text: KATY 270553Z AUTO 33004KT 10SM CLR M21/M24 A3045 RMK AO2 SLP359 T12061239 11144 21222 410221222 51014
Loading
Personal Weather Stations






























Interactive Weather Map New forecast layout! Learn more

10-Day Weather Forecast

Advertisements
Track Severe Weather on mobile